WETTERDATEN

GESTERN
Time Temp. Taup. r.Fe. Windrich Windstärke Windböe Druck 1h Prec. 24h Prec.
00:19 8.9 3.7 70 285 0.8 1.9 1025.1 0.0000 0.0000
00:30 8.8 3.4 69 289 0.8 1.4 1024.9 0.0000 0.0000
00:40 8.8 3.4 69 291 0.8 1.9 1025 0.0000 0.0000
00:49 8.7 3.3 69 290 0.8 1.9 1024.8 0.0000 0.0000
00:59 8.7 3.1 68 289 0.8 1.9 1025 0.0000 0.0000
01:10 8.6 3 68 294 0.8 2.5 1024.8 0.0000 0.0000
01:20 8.5 2.9 68 295 1.1 2.5 1024.8 0.0000 0.0000
01:30 8.5 2.9 68 292 1.1 2.5 1024.9 0.0000 0.0000
01:40 8.5 2.9 68 270 0.3 1.4 1024.6 0.0000 0.0000
01:50 8.4 2.8 68 293 0.8 1.9 1024.7 0.0000 0.0000
02:00 8.4 2.8 68 293 0.8 1.9 1024.6 0.0000 0.0000
02:10 8.3 3 69 289 0.8 1.9 1024.5 0.0000 0.0000
02:21 8.1 2.8 69 293 1.1 2.2 1024.4 0.0000 0.0000
02:31 8 2.7 69 288 0.8 2.5 1024.5 0.0000 0.0000
02:40 7.9 2.8 70 292 1.1 2.5 1024.4 0.0000 0.0000
02:51 7.8 2.7 70 292 0.8 2.2 1024.5 0.0000 0.0000
03:01 7.8 2.7 70 288 1.1 1.9 1024.4 0.0000 0.0000
03:11 7.6 2.5 70 291 0.8 2.2 1024.4 0.0000 0.0000
03:21 7.6 2.5 70 295 1.1 1.9 1024.2 0.0000 0.0000
03:31 7.5 2.4 70 294 1.1 2.2 1024.2 0.0000 0.0000
03:41 7.4 2.3 70 291 0.8 2.2 1024.1 0.0000 0.0000
03:51 7.4 2.3 70 288 0.8 1.4 1024.1 0.0000 0.0000
04:01 7.4 2.3 70 300 0.8 1.9 1024.1 0.0000 0.0000
04:12 7.3 2.2 70 295 1.1 2.2 1024.1 0.0000 0.0000
04:21 7.2 2.1 70 293 1.1 2.2 1024 0.0000 0.0000
04:32 7.1 2 70 292 1.1 2.5 1024 0.0000 0.0000
04:42 7.1 2 70 289 0.8 1.9 1023.8 0.0000 0.0000
04:52 7 1.9 70 290 0.8 1.9 1023.8 0.0000 0.0000
05:02 7 2.1 71 285 0.8 1.4 1023.7 0.0000 0.0000
05:12 7 2.1 71 288 0.8 2.2 1023.8 0.0000 0.0000
05:23 6.9 1.8 70 297 1.1 2.2 1023.7 0.0000 0.0000
05:33 6.9 1.8 70 289 0.8 1.9 1023.7 0.0000 0.0000
05:42 6.8 1.7 70 295 1.1 2.5 1023.4 0.0000 0.0000
05:53 6.8 1.5 69 289 1.1 2.2 1023.5 0.0000 0.0000
06:03 6.7 1.4 69 296 0.8 1.9 1023.6 0.0000 0.0000
06:13 6.7 1.4 69 302 1.1 2.2 1023.6 0.0000 0.0000
06:23 6.6 1.1 68 282 1.1 2.2 1023.6 0.0000 0.0000
06:34 6.5 1 68 289 0.8 2.2 1023.5 0.0000 0.0000
06:43 6.5 1 68 289 1.1 2.2 1023.4 0.0000 0.0000
06:53 6.4 0.9 68 294 1.1 2.2 1023.6 0.0000 0.0000
07:03 6.4 0.9 68 289 1.1 2.2 1023.5 0.0000 0.0000
07:14 6.4 0.9 68 296 1.1 1.9 1023.6 0.0000 0.0000
07:24 6.3 0.8 68 293 0.8 1.9 1023.6 0.0000 0.0000
07:33 6.4 0.9 68 270 0.3 1.4 1023.6 0.0000 0.0000
07:44 6.4 0.9 68 289 0.8 2.2 1023.6 0.0000 0.0000
07:54 6.4 0.9 68 291 0.8 1.9 1023.5 0.0000 0.0000
08:04 6.6 0.9 67 289 0.8 1.9 1023.3 0.0000 0.0000
08:09 6.6 0.9 67 292 0.8 1.9 1023.4 0.0000 0.0000
08:19 6.7 1 67 285 0.8 1.9 1023.4 0.0000 0.0000
08:30 6.8 1.1 67 288 0.8 1.4 1023.3 0.0000 0.0000
08:40 7 1.3 67 282 0.8 1.9 1023.2 0.0000 0.0000
08:49 7.1 1.4 67 270 0.3 1.1 1023.1 0.0000 0.0000
09:00 8 2 66 270 0.8 1.4 1023.1 0.0000 0.0000
09:10 9.1 2.9 65 280 0.8 1.9 1022.9 0.0000 0.0000
09:20 10 3.3 63 270 0.3 1.1 1022.9 0.0000 0.0000
09:30 10.1 3.2 62 270 0.3 1.1 1022.9 0.0000 0.0000
09:41 10.2 3.3 62 284 0.8 1.4 1023.1 0.0000 0.0000
09:50 10 3.1 62 288 0.8 1.4 1023.4 0.0000 0.0000
10:00 9.8 2.9 62 270 0.3 1.1 1023.3 0.0000 0.0000
10:11 9.9 3 62 270 0.3 1.4 1023.4 0.0000 0.0000
10:21 10 3.1 62 270 0.8 1.4 1023.3 0.0000 0.0000
10:31 10.3 3.3 62 285 0.8 1.9 1023.3 0.0000 0.0000
10:40 10.3 3.3 62 287 0.8 1.4 1023.3 0.0000 0.0000
10:51 10.4 3.4 62 283 0.8 1.9 1023.2 0.0000 0.0000
11:01 10.5 3.3 61 292 0.8 2.2 1023.2 0.0000 0.0000
11:11 11.2 4 61 282 0.8 1.4 1023.2 0.0000 0.0000
11:21 13.1 5 58 293 1.1 2.2 1023.2 0.0000 0.0000
11:32 14 5.1 55 281 0.8 2.5 1023 0.0000 0.0000
11:41 13.8 4.4 53 281 0.8 1.9 1023 0.0000 0.0000
11:51 13.4 4 53 270 0.8 1.4 1022.7 0.0000 0.0000
12:02 14.1 4.7 53 284 0.8 2.2 1022.5 0.0000 0.0000
12:12 14.3 4 50 287 0.8 1.9 1022.5 0.0000 0.0000
12:22 13.9 3.9 51 285 0.8 1.9 1022.5 0.0000 0.0000
12:31 13.4 3.5 51 281 0.8 1.9 1022.4 0.0000 0.0000
12:42 13.2 3.6 52 291 0.8 1.9 1022.5 0.0000 0.0000
12:52 12.9 3.3 52 270 0.8 1.4 1022.5 0.0000 0.0000
13:02 12.8 2.9 51 270 0.8 1.4 1022.5 0.0000 0.0000
13:12 12.7 3.1 52 302 0.8 2.5 1022.4 0.0000 0.0000
13:22 12.6 2.5 50 354 0.8 1.9 1022.4 0.0000 0.0000
13:32 12.5 1.8 48 315 0.8 3.1 1022.3 0.0000 0.0000
13:42 12.3 1.3 47 309 0.8 2.5 1022.2 0.0000 0.0000
13:53 12.3 1.6 48 270 0.8 1.9 1022.2 0.0000 0.0000
14:03 12.4 1.4 47 291 0.8 1.9 1022.2 0.0000 0.0000
14:12 12.3 1.3 47 270 0.8 2.5 1022.2 0.0000 0.0000
14:23 12.2 0.9 46 270 0.8 1.9 1022.1 0.0000 0.0000
14:33 12.1 0.8 46 298 0.8 1.9 1022.1 0.0000 0.0000
14:43 12.1 0.8 46 270 1.1 2.2 1022.1 0.0000 0.0000
14:53 12 0.1 44 284 0.8 1.9 1022 0.0000 0.0000
15:03 12.1 0.5 45 270 0.8 2.2 1021.9 0.0000 0.0000
15:13 12.2 0.3 44 290 0.8 2.2 1021.9 0.0000 0.0000
15:23 12.2 0 43 270 0.8 1.4 1021.9 0.0000 0.0000
15:33 12.2 0.3 44 288 0.8 2.2 1021.6 0.0000 0.0000
15:44 12.3 0.7 45 291 0.8 1.9 1021.6 0.0000 0.0000
15:54 12.2 0.3 44 257 0.8 2.5 1021.7 0.0000 0.0000
16:03 12.2 -0.3 42 270 0.8 2.5 1021.5 0.0000 0.0000
16:14 12.2 -0.6 41 270 0.8 1.4 1021.4 0.0000 0.0000
16:24 12.2 -0.9 40 270 0.8 1.4 1021.3 0.0000 0.0000
16:34 12.1 -1.6 38 257 0.8 1.9 1021.4 0.0000 0.0000
16:44 11.9 -1.4 39 270 0.3 1.4 1021.2 0.0000 0.0000
16:54 11.8 -1.2 40 270 0.8 1.4 1021.2 0.0000 0.0000
17:04 11.8 -0.9 41 255 0.8 1.4 1021.1 0.0000 0.0000
17:14 11.7 -1 41 270 0.3 1.4 1021 0.0000 0.0000
17:25 11.6 -0.5 43 270 0.3 1.4 1020.9 0.0000 0.0000
17:35 11.4 -0.6 43 270 0.8 1.9 1020.9 0.0000 0.0000
17:44 11.3 -0.7 43 288 0.8 1.9 1020.8 0.0000 0.0000
17:54 11.1 -0.3 45 270 0.8 1.4 1020.9 0.0000 0.0000
18:05 10.9 -0.8 44 270 0.8 1.9 1020.7 0.0000 0.0000
18:15 10.6 -0.7 45 270 0.3 1.4 1020.8 0.0000 0.0000
18:25 10.5 -1.1 44 270 0.3 1.1 1020.6 0.0000 0.0000
18:35 10.3 -1 45 270 0.3 1.4 1020.7 0.0000 0.0000
18:45 10.2 -1.1 45 270 0.8 1.4 1020.8 0.0000 0.0000
18:55 10 -1 46 270 0.3 1.9 1020.9 0.0000 0.0000
19:05 9.9 -0.8 47 270 0.3 1.1 1020.9 0.0000 0.0000
19:16 9.7 -0.7 48 270 0.3 1.1 1021 0.0000 0.0000
19:25 9.6 -0.5 49 270 0.3 1.4 1020.9 0.0000 0.0000
19:35 9.4 -0.4 50 270 0.3 1.9 1020.9 0.0000 0.0000
19:45 9.1 -0.2 52 230 0.3 1.4 1020.9 0.0000 0.0000
19:56 8.8 -0.4 52 270 0.8 2.2 1020.9 0.0000 0.0000
20:06 8.6 -0.6 52 247 0.8 1.4 1020.9 0.0000 0.0000
20:16 8.5 -0.7 52 270 0.3 1.4 1020.8 0.0000 0.0000
20:26 8.3 -0.6 53 270 0.3 1.4 1021 0.0000 0.0000
20:36 8.2 -0.7 53 270 0.3 1.1 1020.8 0.0000 0.0000
20:47 8 -0.9 53 270 0.3 1.1 1020.9 0.0000 0.0000
20:57 7.9 -0.7 54 270 0.3 1.1 1021 0.0000 0.0000
21:08 7.8 -1 53 270 0.3 1.4 1020.9 0.0000 0.0000
21:18 7.6 -1 54 270 0.3 1.1 1020.9 0.0000 0.0000
21:27 7.5 -1.1 54 310 0.3 1.1 1020.9 0.0000 0.0000
21:37 7.3 -1 55 270 0.3 1.1 1020.9 0.0000 0.0000
21:48 7.2 -0.9 56 270 0.3 1.1 1020.9 0.0000 0.0000
21:58 7.1 -0.9 56 270 0.3 1.4 1020.9 0.0000 0.0000
22:08 7 -0.8 57 270 0.3 1.1 1020.8 0.0000 0.0000
22:18 6.8 -1 57 270 0.3 1.4 1020.6 0.0000 0.0000
22:28 6.7 -0.9 58 270 0.3 1.4 1020.6 0.0000 0.0000
22:38 6.7 -0.9 58 270 0.3 1.1 1020.6 0.0000 0.0000
22:48 6.6 -0.7 59 270 0.3 1.1 1020.4 0.0000 0.0000
22:59 6.5 -0.8 59 270 0.3 1.1 1020.4 0.0000 0.0000
23:08 6.5 -0.8 59 270 0.3 1.1 1020.2 0.0000 0.0000
23:18 6.4 -0.9 59 270 0.3 1.1 1020.3 0.0000 0.0000
23:28 6.3 -1 59 270 0.3 1.1 1020.4 0.0000 0.0000
23:39 6.1 -0.9 60 270 0.3 1.1 1020.1 0.0000 0.0000
23:49 6 -1 60 270 0.3 1.1 1019.9 0.0000 0.0000

TAGESSTATISTIK

2019-03-24
TEMPERATUR
MITTEL
9.3
MAXIMUM
14.3
12:12
MINIMUM
6.0
23:49
LUFTDRUCK
MITTEL
1022.5
MAXIMUM
1025.1
00:19
MINIMUM
1019.9
23:49
TAUPUNKT
MITTEL
1.2
MAXIMUM
5.1
11:32
MINIMUM
-1.6
16:34
FEUCHTIGKEIT
MITTEL
58
MAXIMUM
71
05:02
MINIMUM
38
16:34
WINDSTÄRKE
MITTEL
0.7
MAXIMUM
1.1
01:20
WINDBÖE
MITTEL
1.8
MAXIMUM
3.1
13:32
WINDRICHTUNG
VORHERRSCHENDE
W
81.6%
N
0.7
NO
0.0
O
0.0
SO
0.0
S
0.0
SW
1.4
W
81.6
NW
16.3
NIEDERSCHLAG
REGEN STUNDE
0.0
REGEN TAG
0.0
TEMPERATUR (°C)
MINIMUM
6.0
MAXIMUM
14.3
MITTEL
9.3
LUFTDRUCK (hpa)
MINIMUM
1019.9
MAXIMUM
1025.1
MITTEL
1022.5
MESSGERÄT